Terminal Aerodrome Forecast
Issued by NWS

Home | Current Version | Previous Version | Text Only | Print | Product List | Glossary On
Versions: 1 2 3 4 5 6 7 8 9 10 11 12
000
FTUS43 KDLH 270500
TAFBRD
TAF
KBRD 270524Z 2706/2806 36007KT P6SM OVC016
     FM271600 31008KT P6SM BKN021 BKN040
     FM272000 25007KT P6SM BKN040
     FM280300 24005KT P6SM OVC016=

USA.gov is the U.S. government's official web portal to all federal, state and local government web resources and services.